sensor_id;sensor_type;location;lat;lon;timestamp;P1;durP1;ratioP1;P2;durP2;ratioP2
53040;SDS011;39326;42.650;23.248;2022-09-03T00:00:45;5.53;;;5.03;;
53040;SDS011;39326;42.650;23.248;2022-09-03T00:03:40;5.77;;;5.27;;
53040;SDS011;39326;42.650;23.248;2022-09-03T00:06:17;6.67;;;6.03;;
53040;SDS011;39326;42.650;23.248;2022-09-03T00:08:54;6.27;;;5.77;;
53040;SDS011;39326;42.650;23.248;2022-09-03T00:14:11;6.53;;;6.03;;
53040;SDS011;39326;42.650;23.248;2022-09-03T00:16:54;6.60;;;6.10;;
53040;SDS011;39326;42.650;23.248;2022-09-03T00:19:30;6.10;;;5.60;;
53040;SDS011;39326;42.650;23.248;2022-09-03T00:22:09;6.67;;;6.07;;
53040;SDS011;39326;42.650;23.248;2022-09-03T00:24:45;6.87;;;6.17;;
53040;SDS011;39326;42.650;23.248;2022-09-03T00:27:19;6.60;;;6.00;;
53040;SDS011;39326;42.650;23.248;2022-09-03T00:29:49;6.80;;;6.20;;
53040;SDS011;39326;42.650;23.248;2022-09-03T00:32:24;6.10;;;5.50;;
53040;SDS011;39326;42.650;23.248;2022-09-03T00:35:02;7.20;;;6.50;;
53040;SDS011;39326;42.650;23.248;2022-09-03T00:37:34;6.10;;;5.50;;
53040;SDS011;39326;42.650;23.248;2022-09-03T00:40:05;6.80;;;6.20;;
53040;SDS011;39326;42.650;23.248;2022-09-03T00:42:56;6.20;;;5.60;;
53040;SDS011;39326;42.650;23.248;2022-09-03T00:48:35;7.77;;;6.97;;
53040;SDS011;39326;42.650;23.248;2022-09-03T00:54:16;6.00;;;5.57;;
53040;SDS011;39326;42.650;23.248;2022-09-03T00:57:21;6.60;;;6.10;;
53040;SDS011;39326;42.650;23.248;2022-09-03T01:00:11;7.20;;;6.50;;
53040;SDS011;39326;42.650;23.248;2022-09-03T01:02:45;6.93;;;6.33;;
53040;SDS011;39326;42.650;23.248;2022-09-03T01:05:44;7.03;;;6.33;;
53040;SDS011;39326;42.650;23.248;2022-09-03T01:14:02;6.90;;;6.23;;
53040;SDS011;39326;42.650;23.248;2022-09-03T01:19:51;5.70;;;5.30;;
53040;SDS011;39326;42.650;23.248;2022-09-03T01:25:08;5.83;;;5.43;;
53040;SDS011;39326;42.650;23.248;2022-09-03T01:27:45;6.53;;;5.80;;
53040;SDS011;39326;42.650;23.248;2022-09-03T01:30:37;6.00;;;5.50;;
53040;SDS011;39326;42.650;23.248;2022-09-03T01:39:06;6.10;;;5.53;;
53040;SDS011;39326;42.650;23.248;2022-09-03T01:41:57;5.80;;;5.40;;
53040;SDS011;39326;42.650;23.248;2022-09-03T01:44:58;6.23;;;5.63;;
53040;SDS011;39326;42.650;23.248;2022-09-03T01:47:52;6.00;;;5.50;;
53040;SDS011;39326;42.650;23.248;2022-09-03T02:04:58;5.33;;;4.93;;
53040;SDS011;39326;42.650;23.248;2022-09-03T02:07:41;5.40;;;5.00;;
53040;SDS011;39326;42.650;23.248;2022-09-03T02:10:21;5.10;;;4.60;;
53040;SDS011;39326;42.650;23.248;2022-09-03T02:13:10;5.90;;;5.10;;
53040;SDS011;39326;42.650;23.248;2022-09-03T02:15:47;4.60;;;4.30;;
53040;SDS011;39326;42.650;23.248;2022-09-03T02:18:19;4.83;;;4.23;;
53040;SDS011;39326;42.650;23.248;2022-09-03T02:20:58;5.27;;;4.73;;
53040;SDS011;39326;42.650;23.248;2022-09-03T02:23:28;5.30;;;4.80;;
53040;SDS011;39326;42.650;23.248;2022-09-03T02:26:00;5.47;;;5.07;;
53040;SDS011;39326;42.650;23.248;2022-09-03T02:28:32;5.43;;;5.03;;
53040;SDS011;39326;42.650;23.248;2022-09-03T02:31:03;4.87;;;4.47;;
53040;SDS011;39326;42.650;23.248;2022-09-03T02:33:38;5.10;;;4.73;;
53040;SDS011;39326;42.650;23.248;2022-09-03T02:36:12;5.30;;;4.80;;
53040;SDS011;39326;42.650;23.248;2022-09-03T02:38:46;6.07;;;5.47;;
53040;SDS011;39326;42.650;23.248;2022-09-03T02:41:17;5.60;;;5.10;;
53040;SDS011;39326;42.650;23.248;2022-09-03T02:46:23;5.90;;;5.30;;
53040;SDS011;39326;42.650;23.248;2022-09-03T02:49:02;5.50;;;5.00;;
53040;SDS011;39326;42.650;23.248;2022-09-03T02:51:32;6.30;;;5.70;;
53040;SDS011;39326;42.650;23.248;2022-09-03T02:54:07;5.97;;;5.47;;
53040;SDS011;39326;42.650;23.248;2022-09-03T02:56:39;5.47;;;5.03;;
53040;SDS011;39326;42.650;23.248;2022-09-03T02:59:09;6.00;;;5.50;;
53040;SDS011;39326;42.650;23.248;2022-09-03T03:01:40;5.57;;;5.17;;
53040;SDS011;39326;42.650;23.248;2022-09-03T03:04:09;5.23;;;4.83;;
53040;SDS011;39326;42.650;23.248;2022-09-03T03:06:36;6.20;;;5.63;;
53040;SDS011;39326;42.650;23.248;2022-09-03T03:09:07;6.43;;;5.83;;
53040;SDS011;39326;42.650;23.248;2022-09-03T03:11:38;6.03;;;5.17;;
53040;SDS011;39326;42.650;23.248;2022-09-03T03:14:11;4.70;;;4.33;;
53040;SDS011;39326;42.650;23.248;2022-09-03T03:16:42;6.40;;;5.80;;
53040;SDS011;39326;42.650;23.248;2022-09-03T03:19:13;5.97;;;5.23;;
53040;SDS011;39326;42.650;23.248;2022-09-03T03:21:43;5.87;;;5.37;;
53040;SDS011;39326;42.650;23.248;2022-09-03T03:24:14;5.63;;;5.13;;
53040;SDS011;39326;42.650;23.248;2022-09-03T03:26:44;6.10;;;5.30;;
53040;SDS011;39326;42.650;23.248;2022-09-03T03:29:15;6.03;;;5.53;;
53040;SDS011;39326;42.650;23.248;2022-09-03T03:31:48;5.70;;;5.07;;
53040;SDS011;39326;42.650;23.248;2022-09-03T03:34:19;6.50;;;6.00;;
53040;SDS011;39326;42.650;23.248;2022-09-03T03:36:50;6.17;;;5.67;;
53040;SDS011;39326;42.650;23.248;2022-09-03T03:39:20;7.20;;;6.60;;
53040;SDS011;39326;42.650;23.248;2022-09-03T03:41:51;6.10;;;5.60;;
53040;SDS011;39326;42.650;23.248;2022-09-03T03:44:23;4.97;;;4.53;;
53040;SDS011;39326;42.650;23.248;2022-09-03T03:46:54;5.07;;;4.67;;
53040;SDS011;39326;42.650;23.248;2022-09-03T03:49:24;4.70;;;4.40;;
53040;SDS011;39326;42.650;23.248;2022-09-03T03:51:55;5.97;;;5.37;;
53040;SDS011;39326;42.650;23.248;2022-09-03T03:54:25;5.00;;;4.60;;
53040;SDS011;39326;42.650;23.248;2022-09-03T03:56:55;5.07;;;4.57;;
53040;SDS011;39326;42.650;23.248;2022-09-03T03:59:25;4.90;;;4.50;;
53040;SDS011;39326;42.650;23.248;2022-09-03T04:01:56;4.90;;;4.40;;
53040;SDS011;39326;42.650;23.248;2022-09-03T04:04:27;4.73;;;4.43;;
53040;SDS011;39326;42.650;23.248;2022-09-03T04:06:58;5.10;;;4.40;;
53040;SDS011;39326;42.650;23.248;2022-09-03T04:09:30;5.20;;;4.80;;
53040;SDS011;39326;42.650;23.248;2022-09-03T04:12:00;5.30;;;4.90;;
53040;SDS011;39326;42.650;23.248;2022-09-03T04:14:34;4.40;;;4.10;;
53040;SDS011;39326;42.650;23.248;2022-09-03T04:17:04;4.90;;;4.50;;
53040;SDS011;39326;42.650;23.248;2022-09-03T04:19:34;5.40;;;5.00;;
53040;SDS011;39326;42.650;23.248;2022-09-03T04:22:03;4.57;;;4.20;;
53040;SDS011;39326;42.650;23.248;2022-09-03T04:24:34;4.80;;;4.40;;
53040;SDS011;39326;42.650;23.248;2022-09-03T04:27:02;4.63;;;4.33;;
53040;SDS011;39326;42.650;23.248;2022-09-03T04:29:32;4.53;;;4.13;;
53040;SDS011;39326;42.650;23.248;2022-09-03T04:32:03;5.00;;;4.60;;
53040;SDS011;39326;42.650;23.248;2022-09-03T04:34:51;6.00;;;4.57;;
53040;SDS011;39326;42.650;23.248;2022-09-03T04:37:21;5.57;;;5.07;;
53040;SDS011;39326;42.650;23.248;2022-09-03T04:39:53;5.23;;;4.80;;
53040;SDS011;39326;42.650;23.248;2022-09-03T04:42:24;5.10;;;4.70;;
53040;SDS011;39326;42.650;23.248;2022-09-03T04:44:55;4.63;;;4.23;;
53040;SDS011;39326;42.650;23.248;2022-09-03T04:47:25;4.60;;;4.30;;
53040;SDS011;39326;42.650;23.248;2022-09-03T04:49:54;4.50;;;4.20;;
53040;SDS011;39326;42.650;23.248;2022-09-03T04:52:24;5.03;;;4.53;;
53040;SDS011;39326;42.650;23.248;2022-09-03T04:54:57;5.03;;;4.60;;
53040;SDS011;39326;42.650;23.248;2022-09-03T04:57:28;5.20;;;4.80;;
53040;SDS011;39326;42.650;23.248;2022-09-03T05:00:01;4.40;;;4.10;;
53040;SDS011;39326;42.650;23.248;2022-09-03T05:02:33;5.27;;;4.77;;
53040;SDS011;39326;42.650;23.248;2022-09-03T05:05:05;4.83;;;4.43;;
53040;SDS011;39326;42.650;23.248;2022-09-03T05:07:34;5.00;;;4.50;;
53040;SDS011;39326;42.650;23.248;2022-09-03T05:10:10;5.30;;;4.90;;
53040;SDS011;39326;42.650;23.248;2022-09-03T05:12:46;5.20;;;4.77;;
53040;SDS011;39326;42.650;23.248;2022-09-03T05:15:35;5.50;;;5.10;;
53040;SDS011;39326;42.650;23.248;2022-09-03T05:18:07;5.40;;;4.90;;
53040;SDS011;39326;42.650;23.248;2022-09-03T05:20:38;5.50;;;5.07;;
53040;SDS011;39326;42.650;23.248;2022-09-03T05:23:10;6.27;;;5.77;;
53040;SDS011;39326;42.650;23.248;2022-09-03T05:25:41;5.57;;;4.93;;
53040;SDS011;39326;42.650;23.248;2022-09-03T05:28:24;5.10;;;4.70;;
53040;SDS011;39326;42.650;23.248;2022-09-03T05:31:02;4.97;;;4.57;;
53040;SDS011;39326;42.650;23.248;2022-09-03T05:33:46;4.63;;;4.30;;
53040;SDS011;39326;42.650;23.248;2022-09-03T05:36:19;5.07;;;4.67;;
53040;SDS011;39326;42.650;23.248;2022-09-03T05:38:50;4.83;;;4.43;;
53040;SDS011;39326;42.650;23.248;2022-09-03T05:41:22;4.33;;;3.93;;
53040;SDS011;39326;42.650;23.248;2022-09-03T05:43:51;4.27;;;3.87;;
53040;SDS011;39326;42.650;23.248;2022-09-03T05:46:27;4.67;;;4.37;;
53040;SDS011;39326;42.650;23.248;2022-09-03T05:49:01;5.13;;;4.73;;
53040;SDS011;39326;42.650;23.248;2022-09-03T05:51:34;5.40;;;4.90;;
53040;SDS011;39326;42.650;23.248;2022-09-03T05:54:03;4.50;;;4.10;;
53040;SDS011;39326;42.650;23.248;2022-09-03T05:56:34;4.80;;;4.40;;
53040;SDS011;39326;42.650;23.248;2022-09-03T05:59:06;4.30;;;4.00;;
53040;SDS011;39326;42.650;23.248;2022-09-03T06:01:37;5.33;;;4.83;;
53040;SDS011;39326;42.650;23.248;2022-09-03T06:04:10;4.33;;;3.97;;
53040;SDS011;39326;42.650;23.248;2022-09-03T06:06:43;3.67;;;3.37;;
53040;SDS011;39326;42.650;23.248;2022-09-03T06:09:18;4.50;;;4.10;;
53040;SDS011;39326;42.650;23.248;2022-09-03T06:11:47;3.90;;;3.60;;
53040;SDS011;39326;42.650;23.248;2022-09-03T06:14:13;3.93;;;3.63;;
53040;SDS011;39326;42.650;23.248;2022-09-03T06:16:43;3.97;;;3.60;;
53040;SDS011;39326;42.650;23.248;2022-09-03T06:19:14;4.10;;;3.77;;
53040;SDS011;39326;42.650;23.248;2022-09-03T06:21:43;4.30;;;4.00;;
53040;SDS011;39326;42.650;23.248;2022-09-03T06:24:17;4.43;;;4.13;;
53040;SDS011;39326;42.650;23.248;2022-09-03T06:26:49;4.20;;;3.90;;
53040;SDS011;39326;42.650;23.248;2022-09-03T06:29:16;4.23;;;3.93;;
53040;SDS011;39326;42.650;23.248;2022-09-03T06:31:46;4.50;;;4.20;;
53040;SDS011;39326;42.650;23.248;2022-09-03T06:34:17;4.00;;;3.70;;
53040;SDS011;39326;42.650;23.248;2022-09-03T06:36:48;4.37;;;3.80;;
53040;SDS011;39326;42.650;23.248;2022-09-03T06:39:19;4.67;;;4.37;;
53040;SDS011;39326;42.650;23.248;2022-09-03T06:41:49;4.40;;;4.00;;
53040;SDS011;39326;42.650;23.248;2022-09-03T06:44:16;4.77;;;4.47;;
53040;SDS011;39326;42.650;23.248;2022-09-03T06:46:45;5.43;;;4.93;;
53040;SDS011;39326;42.650;23.248;2022-09-03T06:49:14;5.00;;;4.60;;
53040;SDS011;39326;42.650;23.248;2022-09-03T06:51:45;4.77;;;4.37;;
53040;SDS011;39326;42.650;23.248;2022-09-03T06:54:17;5.47;;;5.00;;
53040;SDS011;39326;42.650;23.248;2022-09-03T06:56:49;5.03;;;4.53;;
53040;SDS011;39326;42.650;23.248;2022-09-03T06:59:18;5.07;;;4.67;;
53040;SDS011;39326;42.650;23.248;2022-09-03T07:01:44;5.40;;;5.00;;
53040;SDS011;39326;42.650;23.248;2022-09-03T07:04:12;5.47;;;5.00;;
53040;SDS011;39326;42.650;23.248;2022-09-03T07:06:46;6.20;;;5.70;;
53040;SDS011;39326;42.650;23.248;2022-09-03T07:09:16;5.13;;;4.73;;
53040;SDS011;39326;42.650;23.248;2022-09-03T07:11:44;5.63;;;5.23;;
53040;SDS011;39326;42.650;23.248;2022-09-03T07:14:15;6.17;;;5.70;;
53040;SDS011;39326;42.650;23.248;2022-09-03T07:16:44;5.27;;;4.93;;
53040;SDS011;39326;42.650;23.248;2022-09-03T07:19:16;5.40;;;5.00;;
53040;SDS011;39326;42.650;23.248;2022-09-03T07:21:47;5.60;;;5.20;;
53040;SDS011;39326;42.650;23.248;2022-09-03T07:24:17;6.43;;;5.93;;
53040;SDS011;39326;42.650;23.248;2022-09-03T07:26:46;7.00;;;6.50;;
53040;SDS011;39326;42.650;23.248;2022-09-03T07:29:17;6.03;;;5.53;;
53040;SDS011;39326;42.650;23.248;2022-09-03T07:31:49;6.17;;;5.67;;
53040;SDS011;39326;42.650;23.248;2022-09-03T07:34:21;6.10;;;5.53;;
53040;SDS011;39326;42.650;23.248;2022-09-03T07:36:51;6.13;;;5.73;;
53040;SDS011;39326;42.650;23.248;2022-09-03T07:39:23;5.77;;;5.37;;
53040;SDS011;39326;42.650;23.248;2022-09-03T07:41:54;6.03;;;5.63;;
53040;SDS011;39326;42.650;23.248;2022-09-03T07:44:25;6.17;;;5.60;;
53040;SDS011;39326;42.650;23.248;2022-09-03T07:46:57;6.43;;;5.93;;
53040;SDS011;39326;42.650;23.248;2022-09-03T07:49:28;5.70;;;5.20;;
53040;SDS011;39326;42.650;23.248;2022-09-03T07:51:58;6.93;;;6.43;;
53040;SDS011;39326;42.650;23.248;2022-09-03T07:54:26;5.00;;;4.70;;
53040;SDS011;39326;42.650;23.248;2022-09-03T07:56:56;5.80;;;5.40;;
53040;SDS011;39326;42.650;23.248;2022-09-03T07:59:23;6.30;;;5.80;;
53040;SDS011;39326;42.650;23.248;2022-09-03T08:01:50;5.80;;;5.40;;
53040;SDS011;39326;42.650;23.248;2022-09-03T08:04:19;6.13;;;5.63;;
53040;SDS011;39326;42.650;23.248;2022-09-03T08:06:47;6.10;;;5.70;;
53040;SDS011;39326;42.650;23.248;2022-09-03T08:09:20;6.13;;;5.73;;
53040;SDS011;39326;42.650;23.248;2022-09-03T08:11:50;5.80;;;5.40;;
53040;SDS011;39326;42.650;23.248;2022-09-03T08:14:17;6.00;;;5.50;;
53040;SDS011;39326;42.650;23.248;2022-09-03T08:16:47;6.27;;;5.87;;
53040;SDS011;39326;42.650;23.248;2022-09-03T08:19:17;6.13;;;5.73;;
53040;SDS011;39326;42.650;23.248;2022-09-03T08:21:49;6.27;;;5.87;;
53040;SDS011;39326;42.650;23.248;2022-09-03T08:24:19;6.33;;;5.93;;
53040;SDS011;39326;42.650;23.248;2022-09-03T08:26:51;6.03;;;5.63;;
53040;SDS011;39326;42.650;23.248;2022-09-03T08:29:21;5.93;;;5.53;;
53040;SDS011;39326;42.650;23.248;2022-09-03T08:31:48;6.10;;;5.60;;
53040;SDS011;39326;42.650;23.248;2022-09-03T08:34:18;5.83;;;5.33;;
53040;SDS011;39326;42.650;23.248;2022-09-03T08:36:49;6.43;;;5.90;;
53040;SDS011;39326;42.650;23.248;2022-09-03T08:39:18;6.00;;;5.57;;
53040;SDS011;39326;42.650;23.248;2022-09-03T08:44:29;6.60;;;6.13;;
53040;SDS011;39326;42.650;23.248;2022-09-03T08:56:25;6.23;;;5.77;;
53040;SDS011;39326;42.650;23.248;2022-09-03T08:58:53;6.10;;;5.60;;
53040;SDS011;39326;42.650;23.248;2022-09-03T09:07:16;6.18;;;5.78;;
53040;SDS011;39326;42.650;23.248;2022-09-03T09:10:02;5.87;;;5.47;;
53040;SDS011;39326;42.650;23.248;2022-09-03T09:12:49;6.60;;;6.13;;
53040;SDS011;39326;42.650;23.248;2022-09-03T09:15:42;6.50;;;6.00;;
53040;SDS011;39326;42.650;23.248;2022-09-03T09:21:08;6.10;;;5.67;;
53040;SDS011;39326;42.650;23.248;2022-09-03T09:23:46;6.43;;;5.93;;
53040;SDS011;39326;42.650;23.248;2022-09-03T09:26:18;7.40;;;6.70;;
53040;SDS011;39326;42.650;23.248;2022-09-03T09:28:52;6.13;;;5.73;;
53040;SDS011;39326;42.650;23.248;2022-09-03T09:31:36;6.38;;;5.97;;
53040;SDS011;39326;42.650;23.248;2022-09-03T09:34:16;5.90;;;5.50;;
53040;SDS011;39326;42.650;23.248;2022-09-03T09:36:48;5.80;;;5.40;;
53040;SDS011;39326;42.650;23.248;2022-09-03T09:39:21;5.80;;;5.40;;
53040;SDS011;39326;42.650;23.248;2022-09-03T09:42:04;5.87;;;5.37;;
53040;SDS011;39326;42.650;23.248;2022-09-03T09:44:39;5.93;;;5.53;;
53040;SDS011;39326;42.650;23.248;2022-09-03T09:47:29;5.63;;;5.23;;
53040;SDS011;39326;42.650;23.248;2022-09-03T09:50:14;6.15;;;5.75;;
53040;SDS011;39326;42.650;23.248;2022-09-03T09:52:58;5.45;;;5.07;;
53040;SDS011;39326;42.650;23.248;2022-09-03T09:55:54;5.40;;;5.05;;
53040;SDS011;39326;42.650;23.248;2022-09-03T09:58:26;6.33;;;5.93;;
53040;SDS011;39326;42.650;23.248;2022-09-03T10:01:01;6.77;;;6.20;;
53040;SDS011;39326;42.650;23.248;2022-09-03T10:03:54;5.72;;;5.32;;
53040;SDS011;39326;42.650;23.248;2022-09-03T10:06:29;6.07;;;5.68;;
53040;SDS011;39326;42.650;23.248;2022-09-03T10:09:22;4.82;;;4.53;;
53040;SDS011;39326;42.650;23.248;2022-09-03T10:12:06;5.40;;;5.10;;
53040;SDS011;39326;42.650;23.248;2022-09-03T10:28:41;5.68;;;5.28;;
53040;SDS011;39326;42.650;23.248;2022-09-03T10:31:26;4.95;;;4.55;;
53040;SDS011;39326;42.650;23.248;2022-09-03T10:34:28;5.60;;;5.25;;
53040;SDS011;39326;42.650;23.248;2022-09-03T10:37:09;5.35;;;4.95;;
53040;SDS011;39326;42.650;23.248;2022-09-03T10:42:43;5.60;;;5.20;;
53040;SDS011;39326;42.650;23.248;2022-09-03T10:48:30;5.28;;;4.88;;
53040;SDS011;39326;42.650;23.248;2022-09-03T10:51:25;5.53;;;5.03;;
53040;SDS011;39326;42.650;23.248;2022-09-03T10:54:03;5.18;;;4.88;;
53040;SDS011;39326;42.650;23.248;2022-09-03T11:02:33;5.40;;;5.10;;
53040;SDS011;39326;42.650;23.248;2022-09-03T11:05:15;5.43;;;5.03;;
53040;SDS011;39326;42.650;23.248;2022-09-03T11:08:08;5.35;;;5.05;;
53040;SDS011;39326;42.650;23.248;2022-09-03T11:10:48;5.30;;;4.82;;
53040;SDS011;39326;42.650;23.248;2022-09-03T11:13:26;4.90;;;4.60;;
53040;SDS011;39326;42.650;23.248;2022-09-03T11:15:59;4.95;;;4.65;;
53040;SDS011;39326;42.650;23.248;2022-09-03T11:18:53;4.65;;;4.35;;
53040;SDS011;39326;42.650;23.248;2022-09-03T11:21:34;5.43;;;4.95;;
53040;SDS011;39326;42.650;23.248;2022-09-03T11:24:18;5.68;;;5.18;;
53040;SDS011;39326;42.650;23.248;2022-09-03T11:27:13;5.25;;;4.95;;
53040;SDS011;39326;42.650;23.248;2022-09-03T11:32:38;5.25;;;4.93;;
53040;SDS011;39326;42.650;23.248;2022-09-03T11:38:20;4.20;;;3.90;;
53040;SDS011;39326;42.650;23.248;2022-09-03T11:43:41;4.40;;;3.92;;
53040;SDS011;39326;42.650;23.248;2022-09-03T11:49:08;4.63;;;4.32;;
53040;SDS011;39326;42.650;23.248;2022-09-03T11:51:38;4.65;;;4.35;;
53040;SDS011;39326;42.650;23.248;2022-09-03T11:56:41;4.32;;;4.03;;
53040;SDS011;39326;42.650;23.248;2022-09-03T12:04:50;5.75;;;5.35;;
53040;SDS011;39326;42.650;23.248;2022-09-03T12:10:27;5.38;;;4.97;;
53040;SDS011;39326;42.650;23.248;2022-09-03T12:13:00;4.95;;;4.55;;
53040;SDS011;39326;42.650;23.248;2022-09-03T12:19:05;4.55;;;4.25;;
53040;SDS011;39326;42.650;23.248;2022-09-03T12:21:41;4.53;;;4.13;;
53040;SDS011;39326;42.650;23.248;2022-09-03T12:24:17;4.35;;;4.05;;
53040;SDS011;39326;42.650;23.248;2022-09-03T12:26:46;4.05;;;3.75;;
53040;SDS011;39326;42.650;23.248;2022-09-03T12:29:22;4.50;;;4.10;;
53040;SDS011;39326;42.650;23.248;2022-09-03T12:31:54;4.28;;;3.95;;
53040;SDS011;39326;42.650;23.248;2022-09-03T12:34:32;4.80;;;4.47;;
53040;SDS011;39326;42.650;23.248;2022-09-03T12:36:59;5.75;;;5.20;;
53040;SDS011;39326;42.650;23.248;2022-09-03T12:39:27;5.10;;;4.80;;
53040;SDS011;39326;42.650;23.248;2022-09-03T12:41:59;4.88;;;4.47;;
53040;SDS011;39326;42.650;23.248;2022-09-03T12:47:09;4.90;;;4.50;;
53040;SDS011;39326;42.650;23.248;2022-09-03T12:49:42;4.90;;;4.60;;
53040;SDS011;39326;42.650;23.248;2022-09-03T12:54:57;4.30;;;4.00;;
53040;SDS011;39326;42.650;23.248;2022-09-03T12:57:35;4.45;;;4.15;;
53040;SDS011;39326;42.650;23.248;2022-09-03T13:00:09;4.90;;;4.50;;
53040;SDS011;39326;42.650;23.248;2022-09-03T13:03:00;5.13;;;4.72;;
53040;SDS011;39326;42.650;23.248;2022-09-03T13:05:44;5.05;;;4.68;;
53040;SDS011;39326;42.650;23.248;2022-09-03T13:08:21;4.90;;;4.60;;
53040;SDS011;39326;42.650;23.248;2022-09-03T13:10:54;4.35;;;4.05;;
53040;SDS011;39326;42.650;23.248;2022-09-03T13:13:26;4.43;;;4.13;;
53040;SDS011;39326;42.650;23.248;2022-09-03T13:27:34;4.32;;;4.03;;
53040;SDS011;39326;42.650;23.248;2022-09-03T13:30:11;4.20;;;3.90;;
53040;SDS011;39326;42.650;23.248;2022-09-03T13:32:58;4.38;;;4.07;;
53040;SDS011;39326;42.650;23.248;2022-09-03T13:35:59;4.57;;;4.13;;
53040;SDS011;39326;42.650;23.248;2022-09-03T13:44:08;4.18;;;3.88;;
53040;SDS011;39326;42.650;23.248;2022-09-03T13:46:43;4.22;;;3.92;;
53040;SDS011;39326;42.650;23.248;2022-09-03T13:52:53;4.50;;;4.20;;
53040;SDS011;39326;42.650;23.248;2022-09-03T13:55:33;4.60;;;4.30;;
53040;SDS011;39326;42.650;23.248;2022-09-03T13:58:29;4.30;;;3.90;;
53040;SDS011;39326;42.650;23.248;2022-09-03T14:01:08;4.70;;;4.30;;
53040;SDS011;39326;42.650;23.248;2022-09-03T14:03:52;4.60;;;4.20;;
53040;SDS011;39326;42.650;23.248;2022-09-03T14:06:42;4.38;;;4.03;;
53040;SDS011;39326;42.650;23.248;2022-09-03T14:09:57;4.28;;;3.90;;
53040;SDS011;39326;42.650;23.248;2022-09-03T14:12:54;4.38;;;4.07;;
53040;SDS011;39326;42.650;23.248;2022-09-03T14:16:23;4.50;;;4.20;;
53040;SDS011;39326;42.650;23.248;2022-09-03T14:19:10;4.03;;;3.83;;
53040;SDS011;39326;42.650;23.248;2022-09-03T14:24:26;4.15;;;3.88;;
53040;SDS011;39326;42.650;23.248;2022-09-03T14:27:07;4.20;;;3.90;;
53040;SDS011;39326;42.650;23.248;2022-09-03T14:29:37;3.90;;;3.60;;
53040;SDS011;39326;42.650;23.248;2022-09-03T14:32:28;4.25;;;3.92;;
53040;SDS011;39326;42.650;23.248;2022-09-03T14:35:21;3.67;;;3.40;;
53040;SDS011;39326;42.650;23.248;2022-09-03T14:41:05;3.25;;;3.00;;
53040;SDS011;39326;42.650;23.248;2022-09-03T14:46:28;3.53;;;3.33;;
53040;SDS011;39326;42.650;23.248;2022-09-03T14:52:00;3.10;;;2.90;;
53040;SDS011;39326;42.650;23.248;2022-09-03T14:54:48;3.10;;;2.75;;
53040;SDS011;39326;42.650;23.248;2022-09-03T15:00:49;3.97;;;3.67;;
53040;SDS011;39326;42.650;23.248;2022-09-03T15:03:35;4.15;;;3.80;;
53040;SDS011;39326;42.650;23.248;2022-09-03T15:06:25;3.97;;;3.67;;
53040;SDS011;39326;42.650;23.248;2022-09-03T15:14:48;3.75;;;3.53;;
53040;SDS011;39326;42.650;23.248;2022-09-03T15:17:30;3.90;;;3.60;;
53040;SDS011;39326;42.650;23.248;2022-09-03T15:26:16;4.32;;;4.03;;
53040;SDS011;39326;42.650;23.248;2022-09-03T15:29:03;4.05;;;3.75;;
53040;SDS011;39326;42.650;23.248;2022-09-03T15:31:56;4.50;;;4.18;;
53040;SDS011;39326;42.650;23.248;2022-09-03T15:40:21;5.05;;;4.55;;
53040;SDS011;39326;42.650;23.248;2022-09-03T15:43:04;4.57;;;4.28;;
53040;SDS011;39326;42.650;23.248;2022-09-03T15:53:52;5.07;;;4.65;;
53040;SDS011;39326;42.650;23.248;2022-09-03T15:56:27;4.25;;;3.95;;
53040;SDS011;39326;42.650;23.248;2022-09-03T15:59:28;4.97;;;4.68;;
53040;SDS011;39326;42.650;23.248;2022-09-03T16:02:24;5.28;;;4.88;;
53040;SDS011;39326;42.650;23.248;2022-09-03T16:05:15;5.47;;;4.97;;
53040;SDS011;39326;42.650;23.248;2022-09-03T16:08:05;4.80;;;4.40;;
53040;SDS011;39326;42.650;23.248;2022-09-03T16:19:13;5.45;;;5.05;;
53040;SDS011;39326;42.650;23.248;2022-09-03T16:22:00;5.45;;;4.85;;
53040;SDS011;39326;42.650;23.248;2022-09-03T16:27:31;5.57;;;5.05;;
53040;SDS011;39326;42.650;23.248;2022-09-03T16:30:08;5.80;;;5.37;;
53040;SDS011;39326;42.650;23.248;2022-09-03T16:46:52;6.63;;;6.13;;
53040;SDS011;39326;42.650;23.248;2022-09-03T16:52:23;6.50;;;6.00;;
53040;SDS011;39326;42.650;23.248;2022-09-03T16:55:21;7.30;;;6.70;;
53040;SDS011;39326;42.650;23.248;2022-09-03T16:58:24;7.15;;;6.55;;
53040;SDS011;39326;42.650;23.248;2022-09-03T17:01:12;6.82;;;6.32;;
53040;SDS011;39326;42.650;23.248;2022-09-03T17:09:55;7.60;;;6.75;;
53040;SDS011;39326;42.650;23.248;2022-09-03T17:12:30;7.18;;;6.57;;
53040;SDS011;39326;42.650;23.248;2022-09-03T17:35:51;7.53;;;6.93;;
53040;SDS011;39326;42.650;23.248;2022-09-03T17:46:53;8.50;;;7.80;;
53040;SDS011;39326;42.650;23.248;2022-09-03T17:49:41;7.30;;;6.65;;
53040;SDS011;39326;42.650;23.248;2022-09-03T17:52:20;7.25;;;6.68;;
53040;SDS011;39326;42.650;23.248;2022-09-03T17:56:05;7.30;;;6.70;;
53040;SDS011;39326;42.650;23.248;2022-09-03T18:03:46;7.32;;;6.53;;
53040;SDS011;39326;42.650;23.248;2022-09-03T18:09:23;7.38;;;6.85;;
53040;SDS011;39326;42.650;23.248;2022-09-03T18:12:33;6.97;;;6.47;;
53040;SDS011;39326;42.650;23.248;2022-09-03T18:15:38;7.43;;;6.70;;
53040;SDS011;39326;42.650;23.248;2022-09-03T18:18:29;7.03;;;6.53;;
53040;SDS011;39326;42.650;23.248;2022-09-03T18:21:03;7.18;;;6.68;;
53040;SDS011;39326;42.650;23.248;2022-09-03T18:27:52;6.97;;;6.35;;
53040;SDS011;39326;42.650;23.248;2022-09-03T18:30:25;7.03;;;6.53;;
53040;SDS011;39326;42.650;23.248;2022-09-03T18:33:14;8.00;;;7.40;;
53040;SDS011;39326;42.650;23.248;2022-09-03T18:36:08;8.05;;;7.32;;
53040;SDS011;39326;42.650;23.248;2022-09-03T18:39:11;8.20;;;7.57;;
53040;SDS011;39326;42.650;23.248;2022-09-03T18:45:26;9.33;;;7.87;;
53040;SDS011;39326;42.650;23.248;2022-09-03T18:51:51;9.33;;;8.53;;
53040;SDS011;39326;42.650;23.248;2022-09-03T18:58:33;9.73;;;8.90;;
53040;SDS011;39326;42.650;23.248;2022-09-03T19:01:37;9.83;;;9.00;;
53040;SDS011;39326;42.650;23.248;2022-09-03T19:04:39;9.53;;;8.77;;
53040;SDS011;39326;42.650;23.248;2022-09-03T19:07:46;8.80;;;8.00;;
53040;SDS011;39326;42.650;23.248;2022-09-03T19:17:22;9.30;;;7.83;;
53040;SDS011;39326;42.650;23.248;2022-09-03T19:20:23;8.47;;;7.57;;
53040;SDS011;39326;42.650;23.248;2022-09-03T19:23:16;12.30;;;8.37;;
53040;SDS011;39326;42.650;23.248;2022-09-03T19:26:12;9.23;;;8.33;;
53040;SDS011;39326;42.650;23.248;2022-09-03T19:29:06;9.43;;;8.63;;
53040;SDS011;39326;42.650;23.248;2022-09-03T19:32:16;8.40;;;7.70;;
53040;SDS011;39326;42.650;23.248;2022-09-03T19:35:18;7.97;;;7.27;;
53040;SDS011;39326;42.650;23.248;2022-09-03T19:38:19;7.80;;;7.10;;
53040;SDS011;39326;42.650;23.248;2022-09-03T19:41:38;8.97;;;8.07;;
53040;SDS011;39326;42.650;23.248;2022-09-03T19:47:33;8.43;;;7.73;;
53040;SDS011;39326;42.650;23.248;2022-09-03T19:50:36;8.07;;;7.47;;
53040;SDS011;39326;42.650;23.248;2022-09-03T19:53:28;9.03;;;8.33;;
53040;SDS011;39326;42.650;23.248;2022-09-03T19:56:18;8.63;;;7.83;;
53040;SDS011;39326;42.650;23.248;2022-09-03T19:59:22;8.50;;;7.80;;
53040;SDS011;39326;42.650;23.248;2022-09-03T20:02:12;8.63;;;7.60;;
53040;SDS011;39326;42.650;23.248;2022-09-03T20:04:59;8.50;;;7.72;;
53040;SDS011;39326;42.650;23.248;2022-09-03T20:07:46;8.47;;;7.77;;
53040;SDS011;39326;42.650;23.248;2022-09-03T20:10:35;9.80;;;8.90;;
53040;SDS011;39326;42.650;23.248;2022-09-03T20:23:56;9.53;;;8.53;;
53040;SDS011;39326;42.650;23.248;2022-09-03T20:29:33;8.83;;;8.10;;
53040;SDS011;39326;42.650;23.248;2022-09-03T20:40:53;8.67;;;8.07;;